Time;durP1;ratioP1;P1;durP2;ratioP2;P2;SDS_P1;SDS_P2;PMS_P1;PMS_P2;Temp;Humidity;BMP_temperature;BMP_pressure;BME280_temperature;BME280_humidity;BME280_pressure;Samples;Min_cycle;Max_cycle;Signal;HPM_P1;HPM_P2
2023/09/18 00:00:12;;;;;;;2.72;2.52;;;22.30;85.20;;;;;;922346;152;27383;-73
2023/09/18 00:02:37;;;;;;;3.37;2.80;;;22.30;85.40;;;;;;948354;149;27407;-73
2023/09/18 00:05:04;;;;;;;3.60;3.30;;;22.20;85.40;;;;;;947641;149;27302;-74
2023/09/18 00:07:30;;;;;;;3.77;3.10;;;22.20;85.40;;;;;;925066;151;27398;-74
2023/09/18 00:09:57;;;;;;;3.00;2.80;;;22.20;85.40;;;;;;933793;149;27415;-76
2023/09/18 00:12:24;;;;;;;2.95;2.60;;;22.20;85.70;;;;;;942237;147;27882;-75
2023/09/18 00:14:50;;;;;;;3.35;3.05;;;22.20;86.00;;;;;;930954;153;27358;-74
2023/09/18 00:17:17;;;;;;;3.17;2.80;;;22.30;85.70;;;;;;926234;150;27357;-75
2023/09/18 00:19:44;;;;;;;3.85;2.90;;;22.30;85.80;;;;;;944777;147;27440;-75
2023/09/18 00:22:10;;;;;;;2.90;2.60;;;22.30;85.90;;;;;;941657;147;27324;-73
2023/09/18 00:24:37;;;;;;;3.83;3.08;;;22.30;86.20;;;;;;933717;150;28547;-73
2023/09/18 00:27:03;;;;;;;3.00;2.80;;;22.30;86.20;;;;;;933555;149;27527;-76
2023/09/18 00:29:30;;;;;;;2.92;2.72;;;22.30;86.30;;;;;;934735;150;27305;-74
2023/09/18 00:31:56;;;;;;;3.00;2.80;;;22.40;87.30;;;;;;934195;149;27600;-74
2023/09/18 00:34:23;;;;;;;2.85;2.65;;;22.40;86.50;;;;;;934656;149;27348;-76
2023/09/18 00:36:50;;;;;;;4.05;3.10;;;22.40;86.60;;;;;;932999;152;27258;-73
2023/09/18 00:39:16;;;;;;;3.60;2.95;;;22.40;86.60;;;;;;934159;149;27447;-74
2023/09/18 00:41:43;;;;;;;3.42;2.72;;;22.50;86.70;;;;;;935068;148;27394;-76
2023/09/18 00:44:09;;;;;;;2.80;2.60;;;22.50;86.70;;;;;;936211;149;27366;-73
2023/09/18 00:46:36;;;;;;;2.47;2.27;;;22.50;86.70;;;;;;935063;149;27445;-75
2023/09/18 00:49:03;;;;;;;3.00;2.42;;;22.50;86.90;;;;;;930837;152;27400;-73
2023/09/18 00:51:29;;;;;;;2.98;2.72;;;22.50;86.80;;;;;;948085;149;27270;-76
2023/09/18 00:53:56;;;;;;;3.58;2.50;;;22.50;86.80;;;;;;926766;151;27440;-73
2023/09/18 00:56:22;;;;;;;3.00;2.70;;;22.50;87.30;;;;;;954610;146;27298;-73
2023/09/18 00:58:50;;;;;;;2.87;2.67;;;22.60;87.10;;;;;;928661;150;27390;-73
2023/09/18 01:01:16;;;;;;;2.83;2.52;;;22.60;87.20;;;;;;949754;147;27386;-73
2023/09/18 01:03:42;;;;;;;2.80;2.60;;;22.60;87.30;;;;;;956893;146;27392;-73
2023/09/18 01:06:09;;;;;;;3.27;2.92;;;22.70;87.30;;;;;;950486;146;27434;-75
2023/09/18 01:08:36;;;;;;;2.72;2.52;;;22.70;87.20;;;;;;935246;149;27397;-75
2023/09/18 01:11:05;;;;;;;3.30;2.83;;;22.70;87.20;;;;;;941064;149;27307;-74
2023/09/18 01:13:31;;;;;;;3.22;2.62;;;22.70;87.10;;;;;;940607;149;27396;-76
2023/09/18 01:16:01;;;;;;;2.72;2.52;;;22.80;87.20;;;;;;940933;149;27278;-73
2023/09/18 01:18:28;;;;;;;3.00;2.80;;;22.80;87.20;;;;;;939829;149;27463;-73
2023/09/18 01:20:54;;;;;;;3.40;3.12;;;22.90;87.40;;;;;;948820;147;27349;-74
2023/09/18 01:23:21;;;;;;;2.58;2.37;;;22.90;87.60;;;;;;954039;147;27309;-75
2023/09/18 01:25:47;;;;;;;2.83;2.58;;;22.90;87.50;;;;;;956199;146;27344;-76
2023/09/18 01:28:16;;;;;;;3.15;2.65;;;23.00;87.30;;;;;;949675;148;27907;-73
2023/09/18 01:30:40;;;;;;;2.87;2.45;;;23.00;87.00;;;;;;950059;148;27420;-74
2023/09/18 01:33:07;;;;;;;2.80;2.60;;;23.10;86.40;;;;;;948678;149;27390;-74
2023/09/18 01:35:34;;;;;;;2.67;2.30;;;23.10;86.00;;;;;;948600;148;27386;-76
2023/09/18 01:38:00;;;;;;;3.75;3.00;;;23.20;85.70;;;;;;948827;149;27332;-73
2023/09/18 01:40:27;;;;;;;3.45;3.08;;;23.20;85.60;;;;;;950101;146;27426;-74
2023/09/18 01:42:53;;;;;;;4.15;2.70;;;23.20;85.50;;;;;;950661;147;27348;-73
2023/09/18 01:45:20;;;;;;;3.05;2.75;;;23.20;85.50;;;;;;949866;149;27350;-74
2023/09/18 01:47:47;;;;;;;3.00;2.67;;;23.20;85.40;;;;;;950598;147;27272;-74
2023/09/18 01:50:13;;;;;;;3.02;2.72;;;23.10;85.20;;;;;;949702;148;27352;-73
2023/09/18 01:52:40;;;;;;;2.77;2.58;;;23.10;85.30;;;;;;949283;149;27331;-73
2023/09/18 01:55:07;;;;;;;2.90;2.70;;;23.10;85.50;;;;;;949487;148;27311;-74
2023/09/18 01:57:33;;;;;;;2.77;2.58;;;23.10;85.90;;;;;;948793;148;27386;-76
2023/09/18 02:00:00;;;;;;;2.75;2.55;;;23.10;86.30;;;;;;951373;148;27361;-73
2023/09/18 02:02:26;;;;;;;4.03;3.00;;;23.00;86.30;;;;;;950279;148;27275;-75
2023/09/18 02:04:53;;;;;;;3.05;2.85;;;23.10;86.50;;;;;;951447;148;27397;-75
2023/09/18 02:07:19;;;;;;;3.05;2.85;;;23.10;86.40;;;;;;948538;149;27322;-74
2023/09/18 02:09:46;;;;;;;3.00;2.80;;;23.00;86.30;;;;;;949426;147;27525;-74
2023/09/18 02:12:17;;;;;;;4.00;2.62;;;23.10;86.50;;;;;;952212;148;27329;-73
2023/09/18 02:14:39;;;;;;;2.92;2.72;;;23.10;86.60;;;;;;948181;148;27370;-74
2023/09/18 02:17:06;;;;;;;3.20;2.92;;;23.10;86.70;;;;;;950630;147;27316;-74
2023/09/18 02:19:32;;;;;;;3.25;2.90;;;23.10;87.10;;;;;;948576;149;27815;-77
2023/09/18 02:21:59;;;;;;;3.02;2.80;;;23.10;87.20;;;;;;950518;148;27340;-74
2023/09/18 02:24:25;;;;;;;3.85;2.80;;;23.20;87.30;;;;;;945012;147;27328;-73
2023/09/18 02:26:52;;;;;;;6.25;2.75;;;23.20;87.40;;;;;;937976;149;27386;-75
2023/09/18 02:29:19;;;;;;;4.35;2.95;;;23.20;88.80;;;;;;939218;149;27418;-75
2023/09/18 02:31:46;;;;;;;2.90;2.70;;;23.30;90.60;;;;;;952762;147;27445;-76
2023/09/18 02:34:12;;;;;;;4.03;2.95;;;23.30;91.00;;;;;;943003;149;27349;-76
2023/09/18 02:36:38;;;;;;;6.03;2.60;;;23.30;91.20;;;;;;951133;147;27401;-75
2023/09/18 02:39:05;;;;;;;2.92;2.72;;;23.30;90.90;;;;;;947376;146;27400;-76
2023/09/18 02:41:32;;;;;;;2.87;2.67;;;23.30;91.20;;;;;;944028;149;27426;-76
2023/09/18 02:43:58;;;;;;;3.20;2.92;;;23.20;91.80;;;;;;950844;147;27440;-75
2023/09/18 02:46:25;;;;;;;3.08;2.77;;;23.20;92.50;;;;;;942213;148;27452;-75
2023/09/18 02:48:51;;;;;;;3.70;3.12;;;23.20;92.70;;;;;;942044;149;27322;-75
2023/09/18 02:51:18;;;;;;;4.80;2.50;;;23.10;93.10;;;;;;938057;149;27421;-75
2023/09/18 02:53:45;;;;;;;2.95;2.75;;;23.00;93.20;;;;;;945868;147;27318;-75
2023/09/18 02:56:11;;;;;;;3.83;2.90;;;23.00;94.00;;;;;;945401;150;27281;-75
2023/09/18 02:58:38;;;;;;;2.65;2.45;;;22.90;94.10;;;;;;929578;150;27992;-75
2023/09/18 03:01:05;;;;;;;3.58;2.87;;;22.90;94.50;;;;;;944647;147;27425;-75
2023/09/18 03:03:31;;;;;;;2.83;2.62;;;22.80;94.70;;;;;;935781;149;27373;-75
2023/09/18 03:06:00;;;;;;;4.00;2.80;;;22.80;95.10;;;;;;944109;147;27302;-75
2023/09/18 03:08:27;;;;;;;3.25;2.92;;;22.70;95.80;;;;;;946275;147;27428;-75
2023/09/18 03:10:54;;;;;;;4.08;3.67;;;22.70;96.10;;;;;;951965;146;27447;-75
2023/09/18 03:13:20;;;;;;;3.40;2.67;;;22.60;96.40;;;;;;958635;146;27440;-75
2023/09/18 03:15:49;;;;;;;3.22;2.98;;;22.60;96.90;;;;;;954156;147;27400;-75
2023/09/18 03:18:16;;;;;;;3.17;2.60;;;22.60;97.10;;;;;;943509;149;27410;-75
2023/09/18 03:20:43;;;;;;;3.12;2.90;;;22.50;97.30;;;;;;935250;149;27410;-75
2023/09/18 03:23:09;;;;;;;3.27;2.98;;;22.50;97.50;;;;;;941895;149;27461;-75
2023/09/18 03:25:37;;;;;;;3.08;2.87;;;22.40;97.80;;;;;;951334;147;27322;-75
2023/09/18 03:28:02;;;;;;;3.72;2.98;;;22.40;97.80;;;;;;951113;147;27310;-75
2023/09/18 03:30:29;;;;;;;3.00;2.80;;;22.30;98.00;;;;;;945874;147;27233;-75
2023/09/18 03:32:56;;;;;;;3.10;2.90;;;22.30;98.40;;;;;;942051;149;27609;-75
2023/09/18 03:35:22;;;;;;;3.25;2.95;;;22.20;98.50;;;;;;943283;149;27494;-75
2023/09/18 03:37:49;;;;;;;3.67;3.20;;;22.10;98.70;;;;;;947731;146;27375;-77
2023/09/18 03:40:15;;;;;;;3.12;2.90;;;22.10;99.00;;;;;;944481;147;27327;-76
2023/09/18 03:42:42;;;;;;;2.87;2.67;;;22.00;99.40;;;;;;946062;147;28180;-76
2023/09/18 03:45:08;;;;;;;2.98;2.60;;;22.00;99.90;;;;;;947497;146;27339;-77
2023/09/18 03:47:35;;;;;;;5.85;3.83;;;21.90;99.90;;;;;;935053;149;27351;-76
2023/09/18 03:50:05;;;;;;;3.17;2.87;;;21.90;99.90;;;;;;945103;147;27321;-77
2023/09/18 03:52:32;;;;;;;2.98;2.75;;;21.90;99.90;;;;;;926411;150;27331;-76
2023/09/18 03:54:58;;;;;;;3.20;2.98;;;21.90;99.90;;;;;;950848;147;27355;-76
2023/09/18 03:57:25;;;;;;;3.33;3.00;;;21.90;99.90;;;;;;944935;147;27450;-76
2023/09/18 03:59:51;;;;;;;4.90;3.00;;;21.90;99.90;;;;;;949067;148;27266;-77
2023/09/18 04:02:18;;;;;;;3.72;2.80;;;21.90;99.90;;;;;;949796;148;27316;-76
2023/09/18 04:04:44;;;;;;;5.10;3.15;;;21.90;99.90;;;;;;949790;148;27433;-76
2023/09/18 04:07:11;;;;;;;4.05;2.87;;;21.90;99.90;;;;;;949504;148;27472;-77
2023/09/18 04:09:39;;;;;;;3.27;2.98;;;21.90;99.90;;;;;;949043;148;27364;-77
2023/09/18 04:12:07;;;;;;;3.27;3.08;;;21.90;99.90;;;;;;943513;149;27455;-75
2023/09/18 04:14:34;;;;;;;3.98;3.10;;;21.80;99.90;;;;;;934046;152;27390;-75
2023/09/18 04:17:03;;;;;;;3.40;2.87;;;21.80;99.90;;;;;;933078;149;27355;-76
2023/09/18 04:19:30;;;;;;;4.40;3.40;;;21.90;99.90;;;;;;932848;151;27471;-77
2023/09/18 04:21:56;;;;;;;2.75;2.55;;;21.90;99.90;;;;;;931648;151;27303;-76
2023/09/18 04:24:23;;;;;;;3.60;3.30;;;21.90;99.90;;;;;;932411;152;27379;-75
2023/09/18 04:26:50;;;;;;;3.30;3.10;;;21.90;99.90;;;;;;933787;150;27351;-76
2023/09/18 04:29:16;;;;;;;3.45;3.15;;;21.80;99.90;;;;;;933844;149;27320;-76
2023/09/18 04:31:42;;;;;;;3.77;3.35;;;21.80;99.90;;;;;;934163;151;27790;-76
2023/09/18 04:34:10;;;;;;;3.35;3.05;;;21.90;99.90;;;;;;932781;151;27287;-77
2023/09/18 04:36:37;;;;;;;3.20;2.75;;;21.80;99.90;;;;;;933384;151;27358;-75
2023/09/18 04:39:04;;;;;;;3.22;3.02;;;21.80;99.90;;;;;;933190;152;27465;-76
2023/09/18 04:41:29;;;;;;;3.45;3.15;;;21.90;99.90;;;;;;933295;150;27410;-76
2023/09/18 04:43:55;;;;;;;3.20;2.90;;;21.80;99.90;;;;;;933081;152;27331;-76
2023/09/18 04:46:23;;;;;;;3.90;3.20;;;21.80;99.90;;;;;;935460;149;27422;-75
2023/09/18 04:48:48;;;;;;;2.80;2.60;;;21.80;99.90;;;;;;933450;149;27443;-75
2023/09/18 04:51:15;;;;;;;3.40;3.10;;;21.80;99.90;;;;;;933540;150;27371;-75
2023/09/18 04:53:42;;;;;;;5.25;3.30;;;21.90;99.90;;;;;;933613;151;27336;-75
2023/09/18 04:56:09;;;;;;;4.05;3.27;;;21.90;99.90;;;;;;934063;152;27413;-75
2023/09/18 04:58:37;;;;;;;3.87;3.42;;;21.80;99.90;;;;;;934024;149;27446;-75
2023/09/18 05:01:01;;;;;;;3.52;3.22;;;21.90;99.90;;;;;;933611;150;27361;-75
2023/09/18 05:03:29;;;;;;;3.58;3.22;;;21.90;99.90;;;;;;934097;151;27307;-75
2023/09/18 05:05:55;;;;;;;4.92;3.08;;;21.90;99.90;;;;;;933178;152;27470;-75
2023/09/18 05:08:22;;;;;;;3.85;3.22;;;21.90;99.90;;;;;;931958;150;27336;-75
2023/09/18 05:10:48;;;;;;;3.37;3.08;;;21.90;99.90;;;;;;939111;150;27477;-75
2023/09/18 05:13:14;;;;;;;3.47;3.17;;;21.90;99.90;;;;;;941679;149;27380;-75
2023/09/18 05:15:41;;;;;;;3.55;3.00;;;21.90;99.90;;;;;;934522;149;27746;-75
2023/09/18 05:18:07;;;;;;;3.05;2.85;;;21.90;99.90;;;;;;933097;148;27941;-75
2023/09/18 05:20:34;;;;;;;3.90;3.20;;;21.90;99.90;;;;;;932262;149;27358;-75
2023/09/18 05:23:02;;;;;;;4.95;2.80;;;21.90;99.90;;;;;;933594;149;27361;-75
2023/09/18 05:25:33;;;;;;;3.65;2.98;;;21.90;99.90;;;;;;933746;149;27333;-75
2023/09/18 05:27:57;;;;;;;3.45;3.15;;;21.90;99.90;;;;;;932213;150;27368;-75
2023/09/18 05:30:29;;;;;;;2.95;2.75;;;21.90;99.90;;;;;;935375;149;27360;-75
2023/09/18 05:32:55;;;;;;;3.15;2.92;;;21.80;99.90;;;;;;932634;149;27347;-75
2023/09/18 05:35:23;;;;;;;3.08;2.87;;;21.80;99.90;;;;;;932066;151;27455;-75
2023/09/18 05:37:48;;;;;;;3.52;3.22;;;21.80;99.90;;;;;;933575;149;27848;-75
2023/09/18 05:40:15;;;;;;;3.77;3.35;;;21.80;99.90;;;;;;933994;150;27384;-75
2023/09/18 05:42:45;;;;;;;3.00;2.80;;;21.80;99.90;;;;;;931882;149;27335;-75
2023/09/18 05:45:11;;;;;;;4.65;3.37;;;21.70;99.90;;;;;;933443;149;27339;-75
2023/09/18 05:47:38;;;;;;;4.17;3.12;;;21.70;99.90;;;;;;934105;149;27318;-75
2023/09/18 05:50:07;;;;;;;3.58;2.92;;;21.80;99.90;;;;;;935045;149;27515;-75
2023/09/18 05:52:34;;;;;;;3.08;2.77;;;21.70;99.90;;;;;;933113;150;27844;-75
2023/09/18 05:55:00;;;;;;;3.20;3.00;;;21.80;99.90;;;;;;932704;149;27340;-75
2023/09/18 05:57:27;;;;;;;3.45;3.15;;;21.80;99.90;;;;;;933437;149;27293;-75
2023/09/18 05:59:53;;;;;;;3.75;2.85;;;21.80;99.90;;;;;;933044;149;27380;-75
2023/09/18 06:02:20;;;;;;;4.90;2.60;;;21.80;99.90;;;;;;934077;149;27341;-75
2023/09/18 06:04:47;;;;;;;4.80;3.17;;;21.90;99.90;;;;;;933413;149;27326;-75
2023/09/18 06:07:13;;;;;;;4.15;3.70;;;21.90;99.90;;;;;;933862;149;27439;-75
2023/09/18 06:09:40;;;;;;;3.10;2.90;;;22.00;99.90;;;;;;934385;149;27398;-75
2023/09/18 06:12:06;;;;;;;3.58;2.75;;;22.00;99.90;;;;;;934288;149;27374;-75
2023/09/18 06:14:37;;;;;;;3.70;2.92;;;22.10;99.90;;;;;;935291;149;27264;-75
2023/09/18 06:17:02;;;;;;;2.90;2.70;;;22.10;99.90;;;;;;934345;149;27393;-74
2023/09/18 06:19:29;;;;;;;4.75;2.65;;;22.20;99.90;;;;;;935974;149;27456;-75
2023/09/18 06:21:55;;;;;;;2.50;2.30;;;22.20;99.90;;;;;;933644;149;27345;-75
2023/09/18 06:24:22;;;;;;;4.67;3.30;;;22.30;99.90;;;;;;934286;149;27319;-75
2023/09/18 06:26:50;;;;;;;3.30;2.60;;;22.30;99.90;;;;;;935111;148;28022;-75
2023/09/18 06:29:15;;;;;;;3.33;2.58;;;22.30;99.90;;;;;;932613;149;27383;-75
2023/09/18 06:31:42;;;;;;;3.00;2.70;;;22.30;99.90;;;;;;934271;149;27350;-77
2023/09/18 06:34:08;;;;;;;5.40;2.45;;;22.40;99.90;;;;;;936673;149;27370;-76
2023/09/18 06:36:35;;;;;;;3.80;2.70;;;22.40;99.90;;;;;;934788;149;27242;-76
2023/09/18 06:39:02;;;;;;;2.02;1.80;;;22.40;99.90;;;;;;935542;149;27379;-76
2023/09/18 06:41:28;;;;;;;3.22;2.00;;;22.50;99.90;;;;;;935820;150;27375;-76
2023/09/18 06:43:55;;;;;;;2.90;2.30;;;22.60;99.90;;;;;;935357;149;28120;-76
2023/09/18 06:46:21;;;;;;;4.50;2.42;;;22.70;99.90;;;;;;933556;148;27311;-76
2023/09/18 06:48:50;;;;;;;3.83;2.50;;;22.80;99.90;;;;;;936595;148;27393;-76
2023/09/18 06:51:14;;;;;;;5.78;2.58;;;22.90;99.90;;;;;;934078;149;27369;-76
2023/09/18 06:53:41;;;;;;;5.28;2.60;;;22.90;99.90;;;;;;935221;149;28055;-76
2023/09/18 06:56:09;;;;;;;3.35;2.00;;;23.00;99.90;;;;;;932352;149;27348;-76
2023/09/18 06:58:34;;;;;;;2.98;2.50;;;23.10;99.90;;;;;;934449;148;27387;-76
2023/09/18 07:01:01;;;;;;;2.52;2.33;;;23.20;99.90;;;;;;934526;150;27345;-76
2023/09/18 07:03:27;;;;;;;4.47;2.35;;;23.30;99.90;;;;;;935497;151;28036;-76
2023/09/18 07:05:54;;;;;;;5.62;2.30;;;23.40;99.90;;;;;;935164;149;27325;-75
2023/09/18 07:08:23;;;;;;;3.40;2.47;;;23.50;99.90;;;;;;936373;149;27354;-75
2023/09/18 07:10:47;;;;;;;4.22;2.55;;;23.60;99.90;;;;;;935087;149;27304;-74
2023/09/18 07:13:14;;;;;;;4.15;2.50;;;23.70;99.90;;;;;;935813;148;27772;-75
2023/09/18 07:15:41;;;;;;;3.55;1.90;;;23.70;99.90;;;;;;935420;149;27363;-75
2023/09/18 07:18:07;;;;;;;5.95;2.40;;;23.80;99.90;;;;;;934416;148;27322;-74
2023/09/18 07:20:36;;;;;;;4.20;2.27;;;23.90;99.90;;;;;;934815;148;27366;-75
2023/09/18 07:23:00;;;;;;;2.20;1.75;;;24.00;99.90;;;;;;934421;149;27353;-76
2023/09/18 07:25:27;;;;;;;2.00;1.80;;;24.00;99.90;;;;;;934493;151;27452;-74
2023/09/18 07:27:53;;;;;;;2.10;1.90;;;24.10;99.90;;;;;;933964;150;27311;-74
2023/09/18 07:30:21;;;;;;;1.70;1.60;;;24.10;99.90;;;;;;934889;149;27545;-75
2023/09/18 07:32:46;;;;;;;3.22;2.05;;;24.10;99.90;;;;;;935219;148;27324;-74
2023/09/18 07:35:16;;;;;;;4.50;1.80;;;24.20;99.90;;;;;;936255;148;27377;-74
2023/09/18 07:37:44;;;;;;;1.92;1.62;;;24.20;99.90;;;;;;933163;149;27389;-75
2023/09/18 07:40:09;;;;;;;3.75;1.57;;;24.30;99.90;;;;;;934679;149;27328;-74
2023/09/18 07:42:35;;;;;;;4.67;1.77;;;24.30;99.90;;;;;;934820;149;27335;-75
2023/09/18 07:45:02;;;;;;;2.45;1.80;;;24.30;99.80;;;;;;935593;151;28053;-75
2023/09/18 07:47:30;;;;;;;4.55;1.95;;;24.40;99.80;;;;;;934946;149;27456;-75
2023/09/18 07:49:55;;;;;;;4.08;2.00;;;24.40;99.70;;;;;;934922;148;27403;-75
2023/09/18 07:52:22;;;;;;;3.12;1.98;;;24.50;99.50;;;;;;934952;149;27352;-75
2023/09/18 07:54:48;;;;;;;3.20;1.98;;;24.50;99.20;;;;;;936094;149;27480;-76
2023/09/18 07:57:15;;;;;;;2.50;1.62;;;24.60;99.20;;;;;;934223;149;27949;-75
2023/09/18 07:59:42;;;;;;;2.37;1.60;;;24.60;98.90;;;;;;934795;149;27358;-75
2023/09/18 08:02:09;;;;;;;3.35;1.60;;;24.60;98.80;;;;;;933964;151;27765;-75
2023/09/18 08:04:35;;;;;;;4.97;2.10;;;24.70;98.70;;;;;;935561;149;27321;-76
2023/09/18 08:07:01;;;;;;;4.17;1.50;;;24.70;98.70;;;;;;936164;148;27465;-74
2023/09/18 08:09:29;;;;;;;6.22;1.67;;;24.80;99.00;;;;;;934876;149;27445;-75
2023/09/18 08:11:55;;;;;;;4.05;2.02;;;24.90;99.10;;;;;;936252;149;27437;-75
2023/09/18 08:14:24;;;;;;;5.42;1.98;;;25.10;99.00;;;;;;937205;149;27391;-76
2023/09/18 08:16:51;;;;;;;3.95;1.42;;;25.20;98.80;;;;;;941263;149;27390;-74
2023/09/18 08:19:18;;;;;;;2.87;1.72;;;25.30;98.00;;;;;;940152;148;27436;-74
2023/09/18 08:21:44;;;;;;;4.35;2.17;;;25.40;97.50;;;;;;940394;150;27349;-75
2023/09/18 08:24:10;;;;;;;3.58;1.47;;;25.50;96.50;;;;;;942013;149;27366;-76
2023/09/18 08:26:37;;;;;;;4.15;1.30;;;25.60;95.60;;;;;;940737;148;27514;-75
2023/09/18 08:29:03;;;;;;;3.67;2.00;;;25.70;94.50;;;;;;942103;148;27335;-74
2023/09/18 08:31:31;;;;;;;3.12;1.47;;;25.80;93.80;;;;;;941271;149;27359;-75
2023/09/18 08:33:57;;;;;;;2.15;1.55;;;25.80;93.30;;;;;;941824;149;27447;-76
2023/09/18 08:36:23;;;;;;;2.17;1.35;;;25.90;92.80;;;;;;942059;149;27389;-76
2023/09/18 08:38:50;;;;;;;2.55;1.57;;;25.90;92.30;;;;;;941309;149;27358;-75
2023/09/18 08:41:16;;;;;;;3.60;1.30;;;26.00;91.90;;;;;;941807;148;27742;-74
2023/09/18 08:43:44;;;;;;;2.08;1.40;;;26.10;92.30;;;;;;940898;149;27345;-74
2023/09/18 08:46:10;;;;;;;7.28;2.02;;;26.10;91.80;;;;;;941380;148;27292;-77
2023/09/18 08:48:36;;;;;;;2.98;1.70;;;26.20;91.90;;;;;;940901;148;27366;-75
2023/09/18 08:51:04;;;;;;;2.12;1.50;;;26.30;91.40;;;;;;941020;149;27311;-74
2023/09/18 08:53:29;;;;;;;2.72;1.45;;;26.30;91.20;;;;;;942899;148;27353;-76
2023/09/18 08:55:58;;;;;;;4.08;1.40;;;26.40;91.20;;;;;;939592;149;27410;-74
2023/09/18 08:58:23;;;;;;;2.35;1.45;;;26.50;91.10;;;;;;941566;148;27316;-76
2023/09/18 09:00:49;;;;;;;3.40;1.25;;;26.60;90.10;;;;;;940471;149;27570;-75
2023/09/18 09:03:16;;;;;;;4.55;1.90;;;26.70;88.30;;;;;;941660;149;27769;-75
2023/09/18 09:05:42;;;;;;;5.00;1.80;;;26.80;86.90;;;;;;939634;148;27325;-74
2023/09/18 09:08:09;;;;;;;2.62;1.12;;;26.80;85.40;;;;;;940112;148;27891;-76
2023/09/18 09:10:35;;;;;;;1.87;1.50;;;26.90;84.70;;;;;;941814;148;27526;-75
2023/09/18 09:13:02;;;;;;;2.37;1.20;;;26.90;84.10;;;;;;941196;148;27451;-74
2023/09/18 09:15:29;;;;;;;1.67;1.07;;;26.90;83.70;;;;;;941751;148;27510;-75
2023/09/18 09:18:05;;;;;;;2.15;1.20;;;27.00;83.60;;;;;;931372;149;27393;-75
2023/09/18 09:20:31;;;;;;;2.08;1.20;;;27.00;82.80;;;;;;932260;151;27457;-76
2023/09/18 09:23:00;;;;;;;4.65;1.77;;;27.10;82.80;;;;;;933770;151;27389;-75
2023/09/18 09:25:27;;;;;;;2.62;1.22;;;27.10;82.90;;;;;;931743;152;27335;-74
2023/09/18 09:27:53;;;;;;;2.17;1.20;;;27.10;82.30;;;;;;935464;150;27350;-74
2023/09/18 09:30:20;;;;;;;1.90;1.40;;;27.20;81.40;;;;;;942012;148;27343;-74
2023/09/18 09:32:50;;;;;;;1.72;1.20;;;27.20;80.70;;;;;;941689;148;27327;-75
2023/09/18 09:35:19;;;;;;;1.22;1.00;;;27.20;80.10;;;;;;933793;150;27360;-75
2023/09/18 09:37:45;;;;;;;2.52;1.30;;;27.20;78.90;;;;;;925742;151;27471;-76
2023/09/18 09:40:14;;;;;;;3.40;1.00;;;27.20;78.00;;;;;;936983;150;27377;-75
2023/09/18 09:42:39;;;;;;;4.28;1.20;;;27.20;77.60;;;;;;938188;152;27777;-75
2023/09/18 09:45:05;;;;;;;2.67;1.05;;;27.10;76.80;;;;;;937908;149;27298;-75
2023/09/18 09:47:35;;;;;;;1.85;1.25;;;27.00;76.60;;;;;;940754;151;27326;-75
2023/09/18 09:50:10;;;;;;;1.52;1.25;;;27.00;76.10;;;;;;944877;148;27441;-75
2023/09/18 09:52:37;;;;;;;2.33;1.22;;;26.90;76.10;;;;;;943252;149;27371;-74
2023/09/18 09:55:06;;;;;;;2.08;1.07;;;26.80;76.60;;;;;;939192;149;27250;-75
2023/09/18 09:57:33;;;;;;;1.10;1.00;;;26.70;76.40;;;;;;928693;149;27417;-76
2023/09/18 10:00:25;;;;;;;2.92;1.20;;;26.70;76.60;;;;;;936817;148;27346;-75
2023/09/18 10:02:38;;;;;;;1.05;0.90;;;26.70;76.60;;;;;;940904;149;27358;-74
2023/09/18 10:05:04;;;;;;;3.35;1.42;;;26.70;76.70;;;;;;943275;148;27765;-75
2023/09/18 10:07:31;;;;;;;2.83;1.20;;;26.70;76.70;;;;;;942930;148;27351;-77
2023/09/18 10:09:57;;;;;;;1.98;0.95;;;26.60;76.30;;;;;;942079;149;27485;-75
2023/09/18 10:12:25;;;;;;;2.62;1.10;;;26.60;76.20;;;;;;944072;148;27363;-75
2023/09/18 10:14:53;;;;;;;2.60;1.22;;;26.60;75.90;;;;;;940196;149;27497;-75
2023/09/18 10:17:17;;;;;;;2.17;1.10;;;26.60;75.80;;;;;;935547;151;27313;-76
2023/09/18 10:19:51;;;;;;;2.92;1.85;;;26.60;75.40;;;;;;932973;149;27386;-74
2023/09/18 10:22:26;;;;;;;2.87;1.57;;;26.50;75.30;;;;;;933219;151;27335;-75
2023/09/18 10:24:51;;;;;;;4.95;2.72;;;26.50;75.40;;;;;;929522;151;27472;-75
2023/09/18 10:27:21;;;;;;;4.15;2.05;;;26.40;75.40;;;;;;934221;151;27486;-76
2023/09/18 10:29:44;;;;;;;2.42;2.20;;;26.30;75.40;;;;;;933832;150;27351;-75
2023/09/18 10:32:11;;;;;;;2.45;2.25;;;26.30;75.70;;;;;;932634;151;27331;-76
2023/09/18 10:34:37;;;;;;;2.98;2.10;;;26.20;75.90;;;;;;931386;152;27863;-75
2023/09/18 10:37:07;;;;;;;6.83;1.55;;;26.10;76.10;;;;;;932780;152;27328;-75
2023/09/18 10:39:36;;;;;;;1.77;1.40;;;26.10;76.20;;;;;;932735;149;27420;-74
2023/09/18 10:42:03;;;;;;;3.95;1.65;;;26.10;76.40;;;;;;933187;151;27285;-75
2023/09/18 10:44:31;;;;;;;3.37;1.82;;;26.00;76.80;;;;;;932102;149;27414;-75
2023/09/18 10:46:56;;;;;;;4.00;1.65;;;26.00;76.90;;;;;;933709;152;29017;-76
2023/09/18 10:49:22;;;;;;;1.07;1.00;;;26.00;77.10;;;;;;932375;149;27337;-75
2023/09/18 10:51:49;;;;;;;2.47;1.80;;;26.00;77.30;;;;;;933087;151;27308;-75
2023/09/18 10:54:15;;;;;;;1.47;1.32;;;26.00;77.30;;;;;;933547;151;27293;-75
2023/09/18 10:56:45;;;;;;;2.90;1.47;;;26.10;77.40;;;;;;939976;149;27447;-76
2023/09/18 10:59:12;;;;;;;2.80;1.35;;;26.10;77.40;;;;;;947330;148;27443;-75
2023/09/18 11:01:38;;;;;;;3.12;1.52;;;26.10;77.70;;;;;;953542;148;27306;-75
2023/09/18 11:04:07;;;;;;;3.40;2.02;;;26.20;77.60;;;;;;949822;148;27426;-75
2023/09/18 11:06:32;;;;;;;2.27;1.30;;;26.20;77.30;;;;;;945808;150;27298;-77
2023/09/18 11:09:04;;;;;;;4.72;2.10;;;26.30;77.30;;;;;;942622;149;27381;-75
2023/09/18 11:11:32;;;;;;;2.17;1.12;;;26.30;76.80;;;;;;945163;148;27299;-77
2023/09/18 11:13:57;;;;;;;2.55;1.02;;;26.40;76.70;;;;;;926318;151;27361;-75
2023/09/18 11:16:26;;;;;;;2.83;1.22;;;26.40;76.60;;;;;;934917;151;27351;-76
2023/09/18 11:18:59;;;;;;;1.80;1.70;;;26.50;76.50;;;;;;938820;151;27457;-75
2023/09/18 11:21:25;;;;;;;1.77;1.12;;;26.50;76.50;;;;;;939029;151;27263;-75
2023/09/18 11:24:10;;;;;;;1.98;1.30;;;26.60;76.50;;;;;;949554;149;27751;-75
2023/09/18 11:26:37;;;;;;;2.92;1.30;;;26.60;76.50;;;;;;935928;150;27317;-75
2023/09/18 11:29:10;;;;;;;3.02;1.42;;;26.70;76.40;;;;;;952192;148;27353;-76
2023/09/18 11:31:38;;;;;;;1.60;1.27;;;26.80;76.40;;;;;;949824;147;27458;-74
2023/09/18 11:34:05;;;;;;;2.10;1.10;;;26.90;76.00;;;;;;943557;147;27297;-75
2023/09/18 11:36:32;;;;;;;2.77;1.27;;;27.00;75.50;;;;;;930483;150;27630;-76
2023/09/18 11:39:02;;;;;;;1.77;1.30;;;27.10;75.30;;;;;;943578;147;28026;-76
2023/09/18 11:41:28;;;;;;;3.95;1.35;;;27.20;75.10;;;;;;950850;147;27437;-75
2023/09/18 11:44:19;;;;;;;3.90;1.30;;;27.20;74.60;;;;;;927342;150;27312;-74
2023/09/18 11:46:45;;;;;;;2.90;1.37;;;27.30;74.40;;;;;;929098;150;27320;-74
2023/09/18 11:49:12;;;;;;;2.75;1.50;;;27.30;74.10;;;;;;931985;149;27343;-76
2023/09/18 11:51:38;;;;;;;2.90;1.40;;;27.40;73.70;;;;;;945230;146;27368;-75
2023/09/18 11:54:05;;;;;;;3.35;1.50;;;27.50;73.50;;;;;;946663;147;27349;-76
2023/09/18 11:56:32;;;;;;;3.80;1.12;;;27.50;72.90;;;;;;932044;149;27514;-75
2023/09/18 11:58:59;;;;;;;3.30;1.32;;;27.60;72.70;;;;;;946990;147;27340;-75
2023/09/18 12:01:26;;;;;;;3.33;1.50;;;27.70;72.60;;;;;;946959;148;27337;-77
2023/09/18 12:03:54;;;;;;;2.30;1.30;;;27.70;72.50;;;;;;932901;149;27349;-75
2023/09/18 12:06:21;;;;;;;1.25;1.12;;;27.80;72.10;;;;;;926349;150;27335;-75
2023/09/18 12:08:47;;;;;;;4.37;1.70;;;27.80;71.80;;;;;;948881;147;27397;-76
2023/09/18 12:11:16;;;;;;;1.42;0.95;;;27.80;71.40;;;;;;940535;148;27305;-77
2023/09/18 12:13:41;;;;;;;1.67;1.20;;;27.90;71.30;;;;;;945664;147;27512;-75
2023/09/18 12:16:09;;;;;;;2.05;1.10;;;27.90;71.40;;;;;;947636;148;27345;-75
2023/09/18 12:18:38;;;;;;;3.70;1.62;;;27.90;71.10;;;;;;947950;147;27442;-75
2023/09/18 12:21:05;;;;;;;3.05;1.15;;;28.00;70.70;;;;;;948839;147;27430;-75
2023/09/18 12:23:32;;;;;;;2.22;1.20;;;28.00;70.40;;;;;;950093;148;27358;-74
2023/09/18 12:25:59;;;;;;;1.25;1.10;;;28.00;70.40;;;;;;948806;148;27485;-75
2023/09/18 12:28:28;;;;;;;3.33;1.32;;;28.10;70.60;;;;;;949455;148;27495;-75
2023/09/18 12:30:56;;;;;;;1.02;0.93;;;28.10;70.60;;;;;;949234;148;27349;-76
2023/09/18 12:33:20;;;;;;;1.77;1.20;;;28.20;70.50;;;;;;948507;148;27369;-76
2023/09/18 12:35:46;;;;;;;2.00;1.22;;;28.20;70.50;;;;;;947991;147;27360;-75
2023/09/18 12:38:15;;;;;;;2.10;1.15;;;28.30;70.30;;;;;;948395;147;27336;-75
2023/09/18 12:40:43;;;;;;;1.22;1.00;;;28.30;70.10;;;;;;948685;147;27412;-77
2023/09/18 12:43:08;;;;;;;2.42;1.25;;;28.30;69.80;;;;;;949025;148;27326;-76
2023/09/18 12:45:35;;;;;;;1.67;1.00;;;28.40;69.50;;;;;;949752;148;27463;-75